sensor_id;sensor_type;location;lat;lon;timestamp;P1;durP1;ratioP1;P2;durP2;ratioP2
27804;SDS011;15183;51.350;11.102;2022-11-20T00:01:18;17.40;;;9.82;;
27804;SDS011;15183;51.350;11.102;2022-11-20T00:03:51;17.88;;;9.68;;
27804;SDS011;15183;51.350;11.102;2022-11-20T00:06:20;21.08;;;12.38;;
27804;SDS011;15183;51.350;11.102;2022-11-20T00:08:47;24.63;;;12.98;;
27804;SDS011;15183;51.350;11.102;2022-11-20T00:11:15;24.52;;;13.35;;
27804;SDS011;15183;51.350;11.102;2022-11-20T00:13:48;21.95;;;12.43;;
27804;SDS011;15183;51.350;11.102;2022-11-20T00:16:18;21.55;;;11.70;;
27804;SDS011;15183;51.350;11.102;2022-11-20T00:18:47;20.45;;;11.30;;
27804;SDS011;15183;51.350;11.102;2022-11-20T00:21:17;16.00;;;10.15;;
27804;SDS011;15183;51.350;11.102;2022-11-20T00:23:46;15.82;;;9.45;;
27804;SDS011;15183;51.350;11.102;2022-11-20T00:26:16;17.20;;;10.52;;
27804;SDS011;15183;51.350;11.102;2022-11-20T00:28:48;18.52;;;11.07;;
27804;SDS011;15183;51.350;11.102;2022-11-20T00:31:20;19.38;;;10.55;;
27804;SDS011;15183;51.350;11.102;2022-11-20T00:33:47;18.23;;;11.07;;
27804;SDS011;15183;51.350;11.102;2022-11-20T00:36:15;20.13;;;11.35;;
27804;SDS011;15183;51.350;11.102;2022-11-20T00:38:51;17.98;;;10.15;;
27804;SDS011;15183;51.350;11.102;2022-11-20T00:41:23;18.70;;;10.80;;
27804;SDS011;15183;51.350;11.102;2022-11-20T00:43:52;23.98;;;12.32;;
27804;SDS011;15183;51.350;11.102;2022-11-20T00:46:20;27.45;;;14.50;;
27804;SDS011;15183;51.350;11.102;2022-11-20T00:48:50;21.33;;;11.68;;
27804;SDS011;15183;51.350;11.102;2022-11-20T00:51:17;22.02;;;11.65;;
27804;SDS011;15183;51.350;11.102;2022-11-20T00:53:48;20.48;;;11.45;;
27804;SDS011;15183;51.350;11.102;2022-11-20T00:56:16;20.98;;;11.73;;
27804;SDS011;15183;51.350;11.102;2022-11-20T00:58:45;21.17;;;11.52;;
27804;SDS011;15183;51.350;11.102;2022-11-20T01:01:18;25.10;;;12.40;;
27804;SDS011;15183;51.350;11.102;2022-11-20T01:03:48;25.92;;;13.93;;
27804;SDS011;15183;51.350;11.102;2022-11-20T01:06:26;19.15;;;10.60;;
27804;SDS011;15183;51.350;11.102;2022-11-20T01:09:00;20.48;;;12.60;;
27804;SDS011;15183;51.350;11.102;2022-11-20T01:11:31;17.35;;;9.93;;
27804;SDS011;15183;51.350;11.102;2022-11-20T01:14:01;17.40;;;10.60;;
27804;SDS011;15183;51.350;11.102;2022-11-20T01:16:32;19.08;;;10.98;;
27804;SDS011;15183;51.350;11.102;2022-11-20T01:19:09;18.48;;;10.75;;
27804;SDS011;15183;51.350;11.102;2022-11-20T01:21:39;21.83;;;11.60;;
27804;SDS011;15183;51.350;11.102;2022-11-20T01:24:10;17.25;;;9.70;;
27804;SDS011;15183;51.350;11.102;2022-11-20T01:26:40;18.00;;;10.30;;
27804;SDS011;15183;51.350;11.102;2022-11-20T01:29:15;17.83;;;10.15;;
27804;SDS011;15183;51.350;11.102;2022-11-20T01:31:48;19.75;;;10.93;;
27804;SDS011;15183;51.350;11.102;2022-11-20T01:34:17;16.95;;;9.43;;
27804;SDS011;15183;51.350;11.102;2022-11-20T01:36:45;20.65;;;11.13;;
27804;SDS011;15183;51.350;11.102;2022-11-20T01:39:16;14.95;;;9.73;;
27804;SDS011;15183;51.350;11.102;2022-11-20T01:41:49;19.40;;;11.43;;
27804;SDS011;15183;51.350;11.102;2022-11-20T01:44:56;17.48;;;10.10;;
27804;SDS011;15183;51.350;11.102;2022-11-20T01:50:05;18.73;;;11.13;;
27804;SDS011;15183;51.350;11.102;2022-11-20T01:52:55;20.63;;;11.80;;
27804;SDS011;15183;51.350;11.102;2022-11-20T01:55:30;13.60;;;8.70;;
27804;SDS011;15183;51.350;11.102;2022-11-20T01:58:05;19.48;;;10.45;;
27804;SDS011;15183;51.350;11.102;2022-11-20T02:00:32;19.75;;;10.63;;
27804;SDS011;15183;51.350;11.102;2022-11-20T02:03:03;20.88;;;11.27;;
27804;SDS011;15183;51.350;11.102;2022-11-20T02:05:38;21.08;;;10.55;;
27804;SDS011;15183;51.350;11.102;2022-11-20T02:08:45;19.13;;;10.57;;
27804;SDS011;15183;51.350;11.102;2022-11-20T02:11:11;21.10;;;11.50;;
27804;SDS011;15183;51.350;11.102;2022-11-20T02:13:38;21.33;;;11.07;;
27804;SDS011;15183;51.350;11.102;2022-11-20T02:16:12;20.67;;;10.68;;
27804;SDS011;15183;51.350;11.102;2022-11-20T02:18:45;19.67;;;11.23;;
27804;SDS011;15183;51.350;11.102;2022-11-20T02:21:14;20.70;;;11.32;;
27804;SDS011;15183;51.350;11.102;2022-11-20T02:24:12;18.35;;;9.93;;
27804;SDS011;15183;51.350;11.102;2022-11-20T02:26:52;14.77;;;9.50;;
27804;SDS011;15183;51.350;11.102;2022-11-20T02:32:04;16.17;;;9.82;;
27804;SDS011;15183;51.350;11.102;2022-11-20T02:34:30;17.23;;;9.98;;
27804;SDS011;15183;51.350;11.102;2022-11-20T02:36:57;19.00;;;11.05;;
27804;SDS011;15183;51.350;11.102;2022-11-20T02:39:25;20.10;;;10.90;;
27804;SDS011;15183;51.350;11.102;2022-11-20T02:41:53;19.98;;;11.07;;
27804;SDS011;15183;51.350;11.102;2022-11-20T02:44:21;18.80;;;10.13;;
27804;SDS011;15183;51.350;11.102;2022-11-20T02:46:48;14.40;;;8.93;;
27804;SDS011;15183;51.350;11.102;2022-11-20T02:49:14;16.90;;;9.23;;
27804;SDS011;15183;51.350;11.102;2022-11-20T02:51:42;21.35;;;12.05;;
27804;SDS011;15183;51.350;11.102;2022-11-20T02:54:08;19.75;;;10.95;;
27804;SDS011;15183;51.350;11.102;2022-11-20T02:56:37;18.73;;;10.75;;
27804;SDS011;15183;51.350;11.102;2022-11-20T02:59:04;17.58;;;9.80;;
27804;SDS011;15183;51.350;11.102;2022-11-20T03:01:31;15.85;;;10.25;;
27804;SDS011;15183;51.350;11.102;2022-11-20T03:03:58;20.30;;;11.50;;
27804;SDS011;15183;51.350;11.102;2022-11-20T03:06:24;15.93;;;9.93;;
27804;SDS011;15183;51.350;11.102;2022-11-20T03:08:51;16.52;;;9.63;;
27804;SDS011;15183;51.350;11.102;2022-11-20T03:11:18;26.02;;;13.05;;
27804;SDS011;15183;51.350;11.102;2022-11-20T03:13:44;17.33;;;9.68;;
27804;SDS011;15183;51.350;11.102;2022-11-20T03:16:12;18.38;;;10.55;;
27804;SDS011;15183;51.350;11.102;2022-11-20T03:18:42;18.92;;;10.40;;
27804;SDS011;15183;51.350;11.102;2022-11-20T03:21:09;18.80;;;10.45;;
27804;SDS011;15183;51.350;11.102;2022-11-20T03:23:37;19.10;;;10.57;;
27804;SDS011;15183;51.350;11.102;2022-11-20T03:28:36;21.60;;;12.30;;
27804;SDS011;15183;51.350;11.102;2022-11-20T03:31:09;18.55;;;10.52;;
27804;SDS011;15183;51.350;11.102;2022-11-20T03:33:41;17.23;;;9.98;;
27804;SDS011;15183;51.350;11.102;2022-11-20T03:36:09;19.30;;;10.63;;
27804;SDS011;15183;51.350;11.102;2022-11-20T03:38:38;16.33;;;9.68;;
27804;SDS011;15183;51.350;11.102;2022-11-20T03:41:10;17.92;;;9.85;;
27804;SDS011;15183;51.350;11.102;2022-11-20T03:43:40;19.75;;;11.20;;
27804;SDS011;15183;51.350;11.102;2022-11-20T03:46:06;17.40;;;9.55;;
27804;SDS011;15183;51.350;11.102;2022-11-20T03:48:33;15.70;;;9.80;;
27804;SDS011;15183;51.350;11.102;2022-11-20T03:51:06;16.25;;;9.40;;
27804;SDS011;15183;51.350;11.102;2022-11-20T03:53:40;15.05;;;9.45;;
27804;SDS011;15183;51.350;11.102;2022-11-20T03:56:09;18.10;;;10.15;;
27804;SDS011;15183;51.350;11.102;2022-11-20T03:58:38;17.42;;;10.18;;
27804;SDS011;15183;51.350;11.102;2022-11-20T04:01:10;17.30;;;10.30;;
27804;SDS011;15183;51.350;11.102;2022-11-20T04:03:42;19.63;;;10.35;;
27804;SDS011;15183;51.350;11.102;2022-11-20T04:06:16;18.63;;;10.27;;
27804;SDS011;15183;51.350;11.102;2022-11-20T04:08:46;16.98;;;10.18;;
27804;SDS011;15183;51.350;11.102;2022-11-20T04:11:14;18.48;;;9.80;;
27804;SDS011;15183;51.350;11.102;2022-11-20T04:13:45;20.05;;;10.50;;
27804;SDS011;15183;51.350;11.102;2022-11-20T04:16:14;15.18;;;9.02;;
27804;SDS011;15183;51.350;11.102;2022-11-20T04:18:42;17.15;;;9.73;;
27804;SDS011;15183;51.350;11.102;2022-11-20T04:21:09;16.88;;;9.30;;
27804;SDS011;15183;51.350;11.102;2022-11-20T04:23:36;15.77;;;8.82;;
27804;SDS011;15183;51.350;11.102;2022-11-20T04:26:07;16.38;;;9.15;;
27804;SDS011;15183;51.350;11.102;2022-11-20T04:28:37;14.85;;;8.43;;
27804;SDS011;15183;51.350;11.102;2022-11-20T04:31:08;14.98;;;8.52;;
27804;SDS011;15183;51.350;11.102;2022-11-20T04:33:40;13.52;;;7.82;;
27804;SDS011;15183;51.350;11.102;2022-11-20T04:36:17;12.75;;;7.53;;
27804;SDS011;15183;51.350;11.102;2022-11-20T04:38:56;11.85;;;7.93;;
27804;SDS011;15183;51.350;11.102;2022-11-20T04:41:25;14.38;;;8.10;;
27804;SDS011;15183;51.350;11.102;2022-11-20T04:43:56;14.23;;;8.63;;
27804;SDS011;15183;51.350;11.102;2022-11-20T04:46:25;13.15;;;8.48;;
27804;SDS011;15183;51.350;11.102;2022-11-20T04:48:52;17.33;;;9.07;;
27804;SDS011;15183;51.350;11.102;2022-11-20T04:51:19;14.07;;;8.43;;
27804;SDS011;15183;51.350;11.102;2022-11-20T04:53:45;14.55;;;8.27;;
27804;SDS011;15183;51.350;11.102;2022-11-20T04:56:12;15.18;;;8.05;;
27804;SDS011;15183;51.350;11.102;2022-11-20T04:58:39;18.00;;;9.20;;
27804;SDS011;15183;51.350;11.102;2022-11-20T05:01:13;39.40;;;23.58;;
27804;SDS011;15183;51.350;11.102;2022-11-20T05:03:43;20.98;;;13.02;;
27804;SDS011;15183;51.350;11.102;2022-11-20T05:06:11;16.70;;;9.90;;
27804;SDS011;15183;51.350;11.102;2022-11-20T05:08:41;15.85;;;10.13;;
27804;SDS011;15183;51.350;11.102;2022-11-20T05:11:11;16.98;;;10.13;;
27804;SDS011;15183;51.350;11.102;2022-11-20T05:13:40;15.27;;;9.85;;
27804;SDS011;15183;51.350;11.102;2022-11-20T05:16:09;18.50;;;10.85;;
27804;SDS011;15183;51.350;11.102;2022-11-20T05:18:38;16.50;;;9.45;;
27804;SDS011;15183;51.350;11.102;2022-11-20T05:21:06;15.23;;;9.05;;
27804;SDS011;15183;51.350;11.102;2022-11-20T05:23:33;14.73;;;8.85;;
27804;SDS011;15183;51.350;11.102;2022-11-20T05:26:00;15.50;;;9.02;;
27804;SDS011;15183;51.350;11.102;2022-11-20T05:28:28;14.05;;;8.57;;
27804;SDS011;15183;51.350;11.102;2022-11-20T05:30:55;14.27;;;7.93;;
27804;SDS011;15183;51.350;11.102;2022-11-20T05:33:29;14.25;;;8.30;;
27804;SDS011;15183;51.350;11.102;2022-11-20T05:35:58;16.55;;;8.98;;
27804;SDS011;15183;51.350;11.102;2022-11-20T05:38:25;14.30;;;8.40;;
27804;SDS011;15183;51.350;11.102;2022-11-20T05:40:51;22.05;;;10.48;;
27804;SDS011;15183;51.350;11.102;2022-11-20T05:43:18;17.10;;;9.15;;
27804;SDS011;15183;51.350;11.102;2022-11-20T05:45:51;15.90;;;9.23;;
27804;SDS011;15183;51.350;11.102;2022-11-20T05:48:19;18.23;;;8.80;;
27804;SDS011;15183;51.350;11.102;2022-11-20T05:50:47;12.93;;;7.75;;
27804;SDS011;15183;51.350;11.102;2022-11-20T05:53:13;12.65;;;7.95;;
27804;SDS011;15183;51.350;11.102;2022-11-20T05:55:40;15.10;;;8.30;;
27804;SDS011;15183;51.350;11.102;2022-11-20T05:58:06;14.02;;;8.02;;
27804;SDS011;15183;51.350;11.102;2022-11-20T06:00:33;15.68;;;8.52;;
27804;SDS011;15183;51.350;11.102;2022-11-20T06:02:59;19.55;;;8.82;;
27804;SDS011;15183;51.350;11.102;2022-11-20T06:05:26;17.27;;;10.02;;
27804;SDS011;15183;51.350;11.102;2022-11-20T06:07:52;16.85;;;9.18;;
27804;SDS011;15183;51.350;11.102;2022-11-20T06:10:19;20.35;;;10.25;;
27804;SDS011;15183;51.350;11.102;2022-11-20T06:12:45;22.15;;;9.93;;
27804;SDS011;15183;51.350;11.102;2022-11-20T06:15:11;17.85;;;9.93;;
27804;SDS011;15183;51.350;11.102;2022-11-20T06:17:38;17.67;;;10.38;;
27804;SDS011;15183;51.350;11.102;2022-11-20T06:20:05;17.33;;;9.57;;
27804;SDS011;15183;51.350;11.102;2022-11-20T06:22:32;15.52;;;9.15;;
27804;SDS011;15183;51.350;11.102;2022-11-20T06:24:58;16.13;;;8.98;;
27804;SDS011;15183;51.350;11.102;2022-11-20T06:27:25;14.25;;;8.43;;
27804;SDS011;15183;51.350;11.102;2022-11-20T06:29:52;14.32;;;8.48;;
27804;SDS011;15183;51.350;11.102;2022-11-20T06:32:18;13.63;;;8.27;;
27804;SDS011;15183;51.350;11.102;2022-11-20T06:34:45;17.63;;;10.15;;
27804;SDS011;15183;51.350;11.102;2022-11-20T06:37:11;14.90;;;8.20;;
27804;SDS011;15183;51.350;11.102;2022-11-20T06:39:38;16.25;;;9.35;;
27804;SDS011;15183;51.350;11.102;2022-11-20T06:42:04;16.83;;;8.63;;
27804;SDS011;15183;51.350;11.102;2022-11-20T06:44:30;18.40;;;9.02;;
27804;SDS011;15183;51.350;11.102;2022-11-20T06:46:57;13.70;;;8.40;;
27804;SDS011;15183;51.350;11.102;2022-11-20T06:49:23;15.88;;;7.63;;
27804;SDS011;15183;51.350;11.102;2022-11-20T06:51:50;13.75;;;8.65;;
27804;SDS011;15183;51.350;11.102;2022-11-20T06:54:17;25.38;;;12.05;;
27804;SDS011;15183;51.350;11.102;2022-11-20T06:56:46;17.83;;;9.70;;
27804;SDS011;15183;51.350;11.102;2022-11-20T06:59:13;19.90;;;10.55;;
27804;SDS011;15183;51.350;11.102;2022-11-20T07:01:40;17.17;;;10.07;;
27804;SDS011;15183;51.350;11.102;2022-11-20T07:04:06;26.95;;;12.88;;
27804;SDS011;15183;51.350;11.102;2022-11-20T07:06:33;29.38;;;14.32;;
27804;SDS011;15183;51.350;11.102;2022-11-20T07:08:59;51.38;;;27.30;;
27804;SDS011;15183;51.350;11.102;2022-11-20T07:11:27;52.63;;;33.53;;
27804;SDS011;15183;51.350;11.102;2022-11-20T07:13:53;46.30;;;30.08;;
27804;SDS011;15183;51.350;11.102;2022-11-20T07:16:20;33.63;;;19.98;;
27804;SDS011;15183;51.350;11.102;2022-11-20T07:18:46;24.05;;;15.27;;
27804;SDS011;15183;51.350;11.102;2022-11-20T07:21:12;25.65;;;13.25;;
27804;SDS011;15183;51.350;11.102;2022-11-20T07:23:39;19.52;;;11.18;;
27804;SDS011;15183;51.350;11.102;2022-11-20T07:26:06;16.80;;;10.55;;
27804;SDS011;15183;51.350;11.102;2022-11-20T07:28:36;18.77;;;10.73;;
27804;SDS011;15183;51.350;11.102;2022-11-20T07:31:03;18.55;;;10.63;;
27804;SDS011;15183;51.350;11.102;2022-11-20T07:33:32;16.27;;;9.05;;
27804;SDS011;15183;51.350;11.102;2022-11-20T07:35:59;16.08;;;9.45;;
27804;SDS011;15183;51.350;11.102;2022-11-20T07:38:25;16.25;;;9.68;;
27804;SDS011;15183;51.350;11.102;2022-11-20T07:40:55;15.98;;;9.55;;
27804;SDS011;15183;51.350;11.102;2022-11-20T07:43:23;20.20;;;11.52;;
27804;SDS011;15183;51.350;11.102;2022-11-20T07:45:50;18.48;;;10.82;;
27804;SDS011;15183;51.350;11.102;2022-11-20T07:48:17;24.08;;;11.73;;
27804;SDS011;15183;51.350;11.102;2022-11-20T07:50:43;21.45;;;11.57;;
27804;SDS011;15183;51.350;11.102;2022-11-20T07:53:10;25.95;;;15.55;;
27804;SDS011;15183;51.350;11.102;2022-11-20T07:55:37;21.65;;;11.48;;
27804;SDS011;15183;51.350;11.102;2022-11-20T07:58:04;22.23;;;11.93;;
27804;SDS011;15183;51.350;11.102;2022-11-20T08:00:31;17.90;;;10.65;;
27804;SDS011;15183;51.350;11.102;2022-11-20T08:02:57;25.20;;;12.73;;
27804;SDS011;15183;51.350;11.102;2022-11-20T08:05:24;22.42;;;12.82;;
27804;SDS011;15183;51.350;11.102;2022-11-20T08:07:51;21.85;;;12.35;;
27804;SDS011;15183;51.350;11.102;2022-11-20T08:10:17;18.85;;;11.80;;
27804;SDS011;15183;51.350;11.102;2022-11-20T08:12:45;19.92;;;11.25;;
27804;SDS011;15183;51.350;11.102;2022-11-20T08:15:34;32.65;;;15.80;;
27804;SDS011;15183;51.350;11.102;2022-11-20T08:20:30;29.52;;;15.75;;
27804;SDS011;15183;51.350;11.102;2022-11-20T08:23:00;29.23;;;14.70;;
27804;SDS011;15183;51.350;11.102;2022-11-20T08:25:31;27.77;;;13.75;;
27804;SDS011;15183;51.350;11.102;2022-11-20T08:28:00;31.10;;;15.65;;
27804;SDS011;15183;51.350;11.102;2022-11-20T08:30:29;31.73;;;15.80;;
27804;SDS011;15183;51.350;11.102;2022-11-20T08:33:00;29.98;;;15.98;;
27804;SDS011;15183;51.350;11.102;2022-11-20T08:35:35;41.03;;;17.75;;
27804;SDS011;15183;51.350;11.102;2022-11-20T08:38:04;31.77;;;15.85;;
27804;SDS011;15183;51.350;11.102;2022-11-20T08:40:32;35.42;;;16.92;;
27804;SDS011;15183;51.350;11.102;2022-11-20T08:42:59;76.88;;;25.98;;
27804;SDS011;15183;51.350;11.102;2022-11-20T08:45:26;55.67;;;22.50;;
27804;SDS011;15183;51.350;11.102;2022-11-20T08:47:52;46.60;;;20.15;;
27804;SDS011;15183;51.350;11.102;2022-11-20T08:50:19;37.90;;;17.65;;
27804;SDS011;15183;51.350;11.102;2022-11-20T08:52:45;44.65;;;22.85;;
27804;SDS011;15183;51.350;11.102;2022-11-20T08:55:12;36.55;;;19.15;;
27804;SDS011;15183;51.350;11.102;2022-11-20T08:57:38;43.40;;;22.40;;
27804;SDS011;15183;51.350;11.102;2022-11-20T09:00:06;51.40;;;27.13;;
27804;SDS011;15183;51.350;11.102;2022-11-20T09:02:33;54.33;;;24.42;;
27804;SDS011;15183;51.350;11.102;2022-11-20T09:05:00;36.90;;;18.80;;
27804;SDS011;15183;51.350;11.102;2022-11-20T09:07:28;36.97;;;18.92;;
27804;SDS011;15183;51.350;11.102;2022-11-20T09:09:55;30.13;;;16.35;;
27804;SDS011;15183;51.350;11.102;2022-11-20T09:12:22;39.08;;;21.27;;
27804;SDS011;15183;51.350;11.102;2022-11-20T09:14:48;39.13;;;19.23;;
27804;SDS011;15183;51.350;11.102;2022-11-20T09:17:15;43.45;;;21.23;;
27804;SDS011;15183;51.350;11.102;2022-11-20T09:19:41;54.60;;;25.90;;
27804;SDS011;15183;51.350;11.102;2022-11-20T09:22:07;93.75;;;41.08;;
27804;SDS011;15183;51.350;11.102;2022-11-20T09:24:43;81.35;;;37.17;;
27804;SDS011;15183;51.350;11.102;2022-11-20T09:27:09;67.22;;;33.25;;
27804;SDS011;15183;51.350;11.102;2022-11-20T09:29:36;56.30;;;27.55;;
27804;SDS011;15183;51.350;11.102;2022-11-20T09:32:02;67.85;;;32.83;;
27804;SDS011;15183;51.350;11.102;2022-11-20T09:34:29;57.25;;;28.05;;
27804;SDS011;15183;51.350;11.102;2022-11-20T09:36:55;39.45;;;21.27;;
27804;SDS011;15183;51.350;11.102;2022-11-20T09:39:22;52.95;;;25.02;;
27804;SDS011;15183;51.350;11.102;2022-11-20T09:45:02;60.88;;;28.15;;
27804;SDS011;15183;51.350;11.102;2022-11-20T09:53:23;47.42;;;23.92;;
27804;SDS011;15183;51.350;11.102;2022-11-20T09:56:01;43.80;;;19.35;;
27804;SDS011;15183;51.350;11.102;2022-11-20T09:58:34;56.60;;;26.13;;
27804;SDS011;15183;51.350;11.102;2022-11-20T10:01:21;48.35;;;23.00;;
27804;SDS011;15183;51.350;11.102;2022-11-20T10:06:42;48.40;;;21.58;;
27804;SDS011;15183;51.350;11.102;2022-11-20T10:20:43;40.45;;;18.67;;
27804;SDS011;15183;51.350;11.102;2022-11-20T10:28:50;33.35;;;17.35;;
27804;SDS011;15183;51.350;11.102;2022-11-20T10:31:30;39.47;;;19.67;;
27804;SDS011;15183;51.350;11.102;2022-11-20T10:37:13;36.45;;;18.13;;
27804;SDS011;15183;51.350;11.102;2022-11-20T10:47:52;37.33;;;20.98;;
27804;SDS011;15183;51.350;11.102;2022-11-20T10:50:52;39.08;;;20.98;;
27804;SDS011;15183;51.350;11.102;2022-11-20T10:56:40;37.05;;;18.25;;
27804;SDS011;15183;51.350;11.102;2022-11-20T11:02:32;37.70;;;18.50;;
27804;SDS011;15183;51.350;11.102;2022-11-20T11:07:47;39.20;;;20.50;;
27804;SDS011;15183;51.350;11.102;2022-11-20T11:10:21;33.70;;;18.48;;
27804;SDS011;15183;51.350;11.102;2022-11-20T11:13:07;41.85;;;21.23;;
27804;SDS011;15183;51.350;11.102;2022-11-20T11:15:50;41.55;;;23.80;;
27804;SDS011;15183;51.350;11.102;2022-11-20T11:18:25;35.20;;;20.35;;
27804;SDS011;15183;51.350;11.102;2022-11-20T11:20:56;36.97;;;20.73;;
27804;SDS011;15183;51.350;11.102;2022-11-20T11:23:41;45.30;;;24.23;;
27804;SDS011;15183;51.350;11.102;2022-11-20T11:26:22;37.55;;;21.65;;
27804;SDS011;15183;51.350;11.102;2022-11-20T11:29:01;48.33;;;25.67;;
27804;SDS011;15183;51.350;11.102;2022-11-20T11:31:31;46.30;;;25.52;;
27804;SDS011;15183;51.350;11.102;2022-11-20T11:34:33;36.65;;;20.83;;
27804;SDS011;15183;51.350;11.102;2022-11-20T11:36:56;38.63;;;20.35;;
27804;SDS011;15183;51.350;11.102;2022-11-20T11:39:24;27.88;;;16.13;;
27804;SDS011;15183;51.350;11.102;2022-11-20T11:41:53;34.00;;;17.95;;
27804;SDS011;15183;51.350;11.102;2022-11-20T11:44:43;36.75;;;20.17;;
27804;SDS011;15183;51.350;11.102;2022-11-20T11:47:31;46.60;;;24.85;;
27804;SDS011;15183;51.350;11.102;2022-11-20T11:58:48;40.72;;;21.55;;
27804;SDS011;15183;51.350;11.102;2022-11-20T12:01:21;72.20;;;37.67;;
27804;SDS011;15183;51.350;11.102;2022-11-20T12:07:16;41.67;;;24.23;;
27804;SDS011;15183;51.350;11.102;2022-11-20T12:09:59;41.63;;;22.83;;
27804;SDS011;15183;51.350;11.102;2022-11-20T12:12:29;72.18;;;37.55;;
27804;SDS011;15183;51.350;11.102;2022-11-20T12:15:12;54.50;;;30.50;;
27804;SDS011;15183;51.350;11.102;2022-11-20T12:17:48;56.50;;;30.65;;
27804;SDS011;15183;51.350;11.102;2022-11-20T12:20:15;58.17;;;32.83;;
27804;SDS011;15183;51.350;11.102;2022-11-20T12:25:54;42.13;;;22.70;;
27804;SDS011;15183;51.350;11.102;2022-11-20T12:40:48;43.75;;;22.60;;
27804;SDS011;15183;51.350;11.102;2022-11-20T12:43:27;51.75;;;27.25;;
27804;SDS011;15183;51.350;11.102;2022-11-20T12:49:23;29.35;;;16.15;;
27804;SDS011;15183;51.350;11.102;2022-11-20T12:57:46;43.10;;;24.00;;
27804;SDS011;15183;51.350;11.102;2022-11-20T13:00:23;43.88;;;24.48;;
27804;SDS011;15183;51.350;11.102;2022-11-20T13:08:52;50.58;;;27.83;;
27804;SDS011;15183;51.350;11.102;2022-11-20T13:19:37;38.92;;;22.92;;
27804;SDS011;15183;51.350;11.102;2022-11-20T13:22:04;45.33;;;26.27;;
27804;SDS011;15183;51.350;11.102;2022-11-20T13:24:33;46.92;;;25.00;;
27804;SDS011;15183;51.350;11.102;2022-11-20T13:27:18;51.53;;;26.85;;
27804;SDS011;15183;51.350;11.102;2022-11-20T13:29:59;51.22;;;26.15;;
27804;SDS011;15183;51.350;11.102;2022-11-20T13:32:47;46.22;;;25.65;;
27804;SDS011;15183;51.350;11.102;2022-11-20T13:35:27;30.20;;;16.75;;
27804;SDS011;15183;51.350;11.102;2022-11-20T13:38:04;36.58;;;20.70;;
27804;SDS011;15183;51.350;11.102;2022-11-20T13:40:50;48.75;;;26.30;;
27804;SDS011;15183;51.350;11.102;2022-11-20T13:46:02;57.30;;;30.95;;
27804;SDS011;15183;51.350;11.102;2022-11-20T13:48:33;50.10;;;27.85;;
27804;SDS011;15183;51.350;11.102;2022-11-20T13:51:13;39.70;;;22.38;;
27804;SDS011;15183;51.350;11.102;2022-11-20T13:53:57;45.13;;;25.33;;
27804;SDS011;15183;51.350;11.102;2022-11-20T13:57:17;38.60;;;21.80;;
27804;SDS011;15183;51.350;11.102;2022-11-20T13:59:57;45.78;;;23.27;;
27804;SDS011;15183;51.350;11.102;2022-11-20T14:02:41;40.35;;;22.02;;
27804;SDS011;15183;51.350;11.102;2022-11-20T14:05:20;39.75;;;21.17;;
27804;SDS011;15183;51.350;11.102;2022-11-20T14:07:49;45.30;;;24.83;;
27804;SDS011;15183;51.350;11.102;2022-11-20T14:10:27;51.70;;;27.27;;
27804;SDS011;15183;51.350;11.102;2022-11-20T14:12:55;34.08;;;19.77;;
27804;SDS011;15183;51.350;11.102;2022-11-20T14:15:25;31.83;;;17.92;;
27804;SDS011;15183;51.350;11.102;2022-11-20T14:17:52;36.75;;;20.77;;
27804;SDS011;15183;51.350;11.102;2022-11-20T14:20:19;38.45;;;20.90;;
27804;SDS011;15183;51.350;11.102;2022-11-20T14:22:51;31.42;;;18.20;;
27804;SDS011;15183;51.350;11.102;2022-11-20T14:25:23;43.28;;;23.05;;
27804;SDS011;15183;51.350;11.102;2022-11-20T14:28:00;32.95;;;19.60;;
27804;SDS011;15183;51.350;11.102;2022-11-20T14:30:29;49.35;;;26.85;;
27804;SDS011;15183;51.350;11.102;2022-11-20T14:33:10;33.03;;;17.52;;
27804;SDS011;15183;51.350;11.102;2022-11-20T14:35:46;23.95;;;14.45;;
27804;SDS011;15183;51.350;11.102;2022-11-20T14:38:17;25.77;;;13.80;;
27804;SDS011;15183;51.350;11.102;2022-11-20T14:41:07;29.85;;;16.58;;
27804;SDS011;15183;51.350;11.102;2022-11-20T14:43:47;43.95;;;24.30;;
27804;SDS011;15183;51.350;11.102;2022-11-20T14:46:24;38.00;;;21.27;;
27804;SDS011;15183;51.350;11.102;2022-11-20T14:48:51;36.95;;;21.95;;
27804;SDS011;15183;51.350;11.102;2022-11-20T14:51:33;30.38;;;17.80;;
27804;SDS011;15183;51.350;11.102;2022-11-20T14:54:14;33.80;;;17.20;;
27804;SDS011;15183;51.350;11.102;2022-11-20T14:56:57;28.58;;;15.32;;
27804;SDS011;15183;51.350;11.102;2022-11-20T14:59:31;30.42;;;17.65;;
27804;SDS011;15183;51.350;11.102;2022-11-20T15:02:00;32.53;;;19.15;;
27804;SDS011;15183;51.350;11.102;2022-11-20T15:04:30;29.55;;;16.67;;
27804;SDS011;15183;51.350;11.102;2022-11-20T15:06:58;27.17;;;17.17;;
27804;SDS011;15183;51.350;11.102;2022-11-20T15:09:25;45.15;;;25.02;;
27804;SDS011;15183;51.350;11.102;2022-11-20T15:11:53;67.45;;;35.05;;
27804;SDS011;15183;51.350;11.102;2022-11-20T15:14:26;55.70;;;30.42;;
27804;SDS011;15183;51.350;11.102;2022-11-20T15:16:55;41.65;;;22.98;;
27804;SDS011;15183;51.350;11.102;2022-11-20T15:19:23;44.40;;;23.95;;
27804;SDS011;15183;51.350;11.102;2022-11-20T15:21:51;45.15;;;24.52;;
27804;SDS011;15183;51.350;11.102;2022-11-20T15:24:18;31.95;;;19.98;;
27804;SDS011;15183;51.350;11.102;2022-11-20T15:26:45;40.38;;;21.98;;
27804;SDS011;15183;51.350;11.102;2022-11-20T15:29:12;34.28;;;18.67;;
27804;SDS011;15183;51.350;11.102;2022-11-20T15:31:44;40.20;;;19.88;;
27804;SDS011;15183;51.350;11.102;2022-11-20T15:34:11;30.10;;;17.40;;
27804;SDS011;15183;51.350;11.102;2022-11-20T15:36:40;28.77;;;16.80;;
27804;SDS011;15183;51.350;11.102;2022-11-20T15:39:08;25.60;;;15.13;;
27804;SDS011;15183;51.350;11.102;2022-11-20T15:41:36;39.45;;;22.13;;
27804;SDS011;15183;51.350;11.102;2022-11-20T15:44:04;31.13;;;18.20;;
27804;SDS011;15183;51.350;11.102;2022-11-20T15:46:31;29.45;;;18.17;;
27804;SDS011;15183;51.350;11.102;2022-11-20T15:49:03;29.75;;;16.80;;
27804;SDS011;15183;51.350;11.102;2022-11-20T15:51:38;38.30;;;21.65;;
27804;SDS011;15183;51.350;11.102;2022-11-20T15:54:13;44.65;;;25.23;;
27804;SDS011;15183;51.350;11.102;2022-11-20T15:56:43;67.10;;;36.25;;
27804;SDS011;15183;51.350;11.102;2022-11-20T15:59:10;63.03;;;32.90;;
27804;SDS011;15183;51.350;11.102;2022-11-20T16:01:36;56.58;;;30.27;;
27804;SDS011;15183;51.350;11.102;2022-11-20T16:04:04;47.75;;;26.23;;
27804;SDS011;15183;51.350;11.102;2022-11-20T16:06:36;46.35;;;25.60;;
27804;SDS011;15183;51.350;11.102;2022-11-20T16:09:02;98.32;;;46.97;;
27804;SDS011;15183;51.350;11.102;2022-11-20T16:11:29;62.60;;;34.13;;
27804;SDS011;15183;51.350;11.102;2022-11-20T16:13:55;107.35;;;52.30;;
27804;SDS011;15183;51.350;11.102;2022-11-20T16:16:40;73.60;;;39.13;;
27804;SDS011;15183;51.350;11.102;2022-11-20T16:19:10;61.60;;;33.33;;
27804;SDS011;15183;51.350;11.102;2022-11-20T16:21:41;53.03;;;28.67;;
27804;SDS011;15183;51.350;11.102;2022-11-20T16:24:09;59.40;;;31.48;;
27804;SDS011;15183;51.350;11.102;2022-11-20T16:26:38;49.47;;;26.88;;